Time;durP1;ratioP1;P1;durP2;ratioP2;P2;SDS_P1;SDS_P2;PMS_P1;PMS_P2;Temp;Humidity;BMP_temperature;BMP_pressure;BME280_temperature;BME280_humidity;BME280_pressure;Samples;Min_cycle;Max_cycle;Signal;HPM_P1;HPM_P2
2023/12/24 00:00:55;;;;;;;1.08;1.02;;;;;;;;;;10424802;28;20864;-77
2023/12/24 00:05:56;;;;;;;0.25;0.25;;;;;;;;;;10417241;28;20214;-76
2023/12/24 00:10:57;;;;;;;0.10;0.10;;;;;;;;;;10401164;28;20305;-76
2023/12/24 00:15:58;;;;;;;0.10;0.10;;;;;;;;;;10424925;28;20221;-74
2023/12/24 00:20:59;;;;;;;0.10;0.10;;;;;;;;;;10427943;28;20583;-74
2023/12/24 00:26:00;;;;;;;0.10;0.10;;;;;;;;;;10413040;28;20217;-77
2023/12/24 00:31:01;;;;;;;0.20;0.20;;;;;;;;;;10423673;28;20215;-76
2023/12/24 00:36:02;;;;;;;0.10;0.10;;;;;;;;;;10417963;28;20218;-75
2023/12/24 00:41:03;;;;;;;0.17;0.17;;;;;;;;;;10421827;28;20210;-74
2023/12/24 00:46:04;;;;;;;0.13;0.13;;;;;;;;;;10404405;28;20206;-76
2023/12/24 00:51:05;;;;;;;0.20;0.20;;;;;;;;;;10417676;28;20218;-75
2023/12/24 00:56:06;;;;;;;0.20;0.20;;;;;;;;;;10425179;28;20230;-75
2023/12/24 01:01:07;;;;;;;0.13;0.13;;;;;;;;;;10376321;28;20207;-75
2023/12/24 01:06:08;;;;;;;0.20;0.20;;;;;;;;;;10383725;28;20306;-76
2023/12/24 01:11:09;;;;;;;0.20;0.20;;;;;;;;;;10358337;28;20698;-76
2023/12/24 01:16:11;;;;;;;0.20;0.20;;;;;;;;;;10374200;28;20233;-75
2023/12/24 01:21:12;;;;;;;0.00;0.00;;;;;;;;;;10361462;28;20214;-77
2023/12/24 01:26:13;;;;;;;1.13;0.20;;;;;;;;;;10378161;28;20225;-76
2023/12/24 01:31:14;;;;;;;0.13;0.13;;;;;;;;;;10392499;28;20224;-76
2023/12/24 01:36:15;;;;;;;0.10;0.10;;;;;;;;;;10368700;28;20741;-75
2023/12/24 01:41:16;;;;;;;0.20;0.20;;;;;;;;;;10360539;28;20740;-74
2023/12/24 01:46:24;;;;;;;0.30;0.30;;;;;;;;;;10369930;28;20294;-76
2023/12/24 01:51:26;;;;;;;0.20;0.20;;;;;;;;;;10383027;28;20704;-77
2023/12/24 01:56:27;;;;;;;1.75;0.30;;;;;;;;;;10401934;28;20302;-73
2023/12/24 02:01:28;;;;;;;0.38;0.38;;;;;;;;;;10431568;28;20276;-74
2023/12/24 02:06:31;;;;;;;1.00;0.50;;;;;;;;;;10410933;28;20218;-75
2023/12/24 02:11:32;;;;;;;0.50;0.50;;;;;;;;;;10412302;28;20249;-78
2023/12/24 02:16:37;;;;;;;0.45;0.45;;;;;;;;;;10416637;28;20222;-78
2023/12/24 02:21:38;;;;;;;0.90;0.90;;;;;;;;;;10439358;28;20218;-78
2023/12/24 02:26:54;;;;;;;1.00;1.00;;;;;;;;;;10430158;28;20202;-79
2023/12/24 02:32:03;;;;;;;1.05;0.95;;;;;;;;;;10416151;28;20206;-78
2023/12/24 02:37:05;;;;;;;1.25;1.25;;;;;;;;;;10438117;28;21056;-79
2023/12/24 02:42:06;;;;;;;1.10;1.10;;;;;;;;;;10433636;28;20276;-75
2023/12/24 02:47:07;;;;;;;1.25;1.25;;;;;;;;;;10417807;28;20219;-75
2023/12/24 02:52:08;;;;;;;1.10;1.10;;;;;;;;;;10397838;28;20207;-76
2023/12/24 02:57:09;;;;;;;1.17;1.17;;;;;;;;;;10397633;28;20222;-78
2023/12/24 03:02:10;;;;;;;1.23;1.23;;;;;;;;;;10407749;28;20202;-76
2023/12/24 03:07:12;;;;;;;1.40;1.40;;;;;;;;;;10404854;28;20221;-77
2023/12/24 03:12:14;;;;;;;1.38;1.38;;;;;;;;;;10422288;28;20853;-75
2023/12/24 03:17:15;;;;;;;1.20;1.20;;;;;;;;;;10402938;28;20219;-77
2023/12/24 03:22:16;;;;;;;1.27;1.27;;;;;;;;;;10395072;28;20265;-76
2023/12/24 03:27:18;;;;;;;1.48;1.42;;;;;;;;;;10402073;28;20215;-76
2023/12/24 03:32:19;;;;;;;1.50;1.50;;;;;;;;;;10398838;28;20260;-77
2023/12/24 03:37:20;;;;;;;1.45;1.42;;;;;;;;;;10408958;28;20777;-74
2023/12/24 03:42:21;;;;;;;1.00;1.00;;;;;;;;;;10403849;28;20207;-75
2023/12/24 03:47:22;;;;;;;1.25;1.25;;;;;;;;;;10389829;28;20302;-74
2023/12/24 03:52:23;;;;;;;0.98;0.98;;;;;;;;;;10386693;28;20210;-75
2023/12/24 03:57:24;;;;;;;0.80;0.80;;;;;;;;;;10420717;28;20218;-76
2023/12/24 04:02:25;;;;;;;1.67;0.80;;;;;;;;;;10401837;28;20207;-74
2023/12/24 04:07:26;;;;;;;0.95;0.80;;;;;;;;;;10406715;28;20207;-78
2023/12/24 04:12:27;;;;;;;0.60;0.60;;;;;;;;;;10425648;28;20207;-76
2023/12/24 04:17:28;;;;;;;0.63;0.60;;;;;;;;;;10408886;28;20768;-77
2023/12/24 04:22:29;;;;;;;1.02;0.70;;;;;;;;;;10410538;28;20215;-75
2023/12/24 04:27:31;;;;;;;0.75;0.75;;;;;;;;;;10415286;28;20214;-78
2023/12/24 04:32:32;;;;;;;0.63;0.63;;;;;;;;;;10434386;28;20313;-75
2023/12/24 04:37:33;;;;;;;0.95;0.95;;;;;;;;;;10413672;28;20225;-76
2023/12/24 04:42:34;;;;;;;0.95;0.95;;;;;;;;;;10401362;28;20763;-75
2023/12/24 04:47:35;;;;;;;1.00;1.00;;;;;;;;;;10413546;28;20215;-77
2023/12/24 04:52:38;;;;;;;1.00;1.00;;;;;;;;;;10395522;28;20260;-77
2023/12/24 04:57:40;;;;;;;1.58;1.00;;;;;;;;;;10414737;28;20299;-76
2023/12/24 05:02:41;;;;;;;1.00;1.00;;;;;;;;;;10390265;28;20238;-75
2023/12/24 05:07:43;;;;;;;1.10;1.10;;;;;;;;;;10409441;28;20215;-75
2023/12/24 05:12:44;;;;;;;1.02;0.93;;;;;;;;;;10413291;28;20707;-75
2023/12/24 05:17:45;;;;;;;1.25;0.80;;;;;;;;;;10396120;28;20218;-76
2023/12/24 05:22:47;;;;;;;0.98;0.98;;;;;;;;;;10400581;28;20697;-76
2023/12/24 05:27:49;;;;;;;0.95;0.80;;;;;;;;;;10415114;28;20676;-75
2023/12/24 05:32:50;;;;;;;1.17;1.15;;;;;;;;;;10412815;28;20232;-76
2023/12/24 05:37:51;;;;;;;2.95;1.17;;;;;;;;;;10411607;28;20594;-76
2023/12/24 05:42:52;;;;;;;1.45;1.35;;;;;;;;;;10419060;28;20214;-74
2023/12/24 05:47:53;;;;;;;1.30;1.20;;;;;;;;;;10433369;28;20573;-75
2023/12/24 05:52:54;;;;;;;1.40;1.40;;;;;;;;;;10404782;28;21178;-75
2023/12/24 05:57:55;;;;;;;1.67;1.63;;;;;;;;;;10430259;28;20230;-76
2023/12/24 06:02:56;;;;;;;1.88;1.80;;;;;;;;;;10417054;28;20298;-75
2023/12/24 06:07:57;;;;;;;1.60;1.60;;;;;;;;;;10388826;28;20229;-76
2023/12/24 06:12:58;;;;;;;1.00;1.00;;;;;;;;;;10410412;28;20595;-77
2023/12/24 06:18:01;;;;;;;1.52;1.48;;;;;;;;;;10413684;28;20203;-75
2023/12/24 06:23:02;;;;;;;1.05;1.05;;;;;;;;;;10410848;28;20208;-75
2023/12/24 06:28:03;;;;;;;1.42;1.30;;;;;;;;;;10429148;28;20233;-75
2023/12/24 06:33:04;;;;;;;2.05;0.82;;;;;;;;;;10408824;28;20288;-76
2023/12/24 06:38:06;;;;;;;0.85;0.80;;;;;;;;;;10404758;28;20233;-74
2023/12/24 06:43:07;;;;;;;0.77;0.77;;;;;;;;;;10393350;28;20210;-74
2023/12/24 06:48:08;;;;;;;0.50;0.50;;;;;;;;;;10430082;28;20222;-75
2023/12/24 06:53:09;;;;;;;0.75;0.75;;;;;;;;;;10418391;28;20248;-76
2023/12/24 06:58:10;;;;;;;0.30;0.30;;;;;;;;;;10401072;28;20215;-76
2023/12/24 07:03:12;;;;;;;0.40;0.40;;;;;;;;;;10403550;28;20696;-74
2023/12/24 07:08:13;;;;;;;0.40;0.40;;;;;;;;;;10389512;28;20585;-78
2023/12/24 07:13:14;;;;;;;0.30;0.30;;;;;;;;;;10421018;28;20299;-74
2023/12/24 07:18:15;;;;;;;0.20;0.20;;;;;;;;;;10399500;28;20217;-75
2023/12/24 07:23:16;;;;;;;0.17;0.17;;;;;;;;;;10405083;28;20723;-74
2023/12/24 07:28:17;;;;;;;0.20;0.20;;;;;;;;;;10404471;28;20297;-75
2023/12/24 07:33:18;;;;;;;0.30;0.20;;;;;;;;;;10407929;28;20584;-78
2023/12/24 07:38:19;;;;;;;0.13;0.10;;;;;;;;;;10392913;28;20222;-76
2023/12/24 07:43:20;;;;;;;0.10;0.10;;;;;;;;;;10414519;28;20222;-76
2023/12/24 07:48:21;;;;;;;0.20;0.20;;;;;;;;;;10408325;28;20200;-75
2023/12/24 07:53:22;;;;;;;0.10;0.10;;;;;;;;;;10393926;28;20211;-76
2023/12/24 07:58:23;;;;;;;1.45;0.17;;;;;;;;;;10375695;28;20231;-75
2023/12/24 08:03:24;;;;;;;0.10;0.10;;;;;;;;;;10383499;28;20206;-74
2023/12/24 08:08:26;;;;;;;0.10;0.10;;;;;;;;;;10407949;28;20202;-74
2023/12/24 08:13:27;;;;;;;0.05;0.05;;;;;;;;;;10421730;28;20202;-74
2023/12/24 08:18:28;;;;;;;0.10;0.10;;;;;;;;;;10416407;28;20671;-75
2023/12/24 08:23:29;;;;;;;0.10;0.10;;;;;;;;;;10407991;28;20212;-73
2023/12/24 08:28:30;;;;;;;0.10;0.10;;;;;;;;;;10393254;28;20211;-75
2023/12/24 08:33:31;;;;;;;0.10;0.10;;;;;;;;;;10418959;28;20218;-75
2023/12/24 08:38:32;;;;;;;0.10;0.10;;;;;;;;;;10401091;28;20268;-75
2023/12/24 08:43:33;;;;;;;0.10;0.10;;;;;;;;;;10417807;28;20263;-75
2023/12/24 08:48:34;;;;;;;0.10;0.10;;;;;;;;;;10382162;28;20211;-75
2023/12/24 08:53:35;;;;;;;1.55;0.10;;;;;;;;;;10401790;28;20199;-77
2023/12/24 08:58:36;;;;;;;0.40;0.20;;;;;;;;;;10416214;28;20774;-75
2023/12/24 09:03:37;;;;;;;0.43;0.10;;;;;;;;;;10399258;28;20211;-75
2023/12/24 09:08:38;;;;;;;0.20;0.20;;;;;;;;;;10384917;28;20206;-76
2023/12/24 09:13:39;;;;;;;0.08;0.08;;;;;;;;;;10403314;28;20250;-75
2023/12/24 09:18:40;;;;;;;0.20;0.20;;;;;;;;;;10399080;28;20748;-75
2023/12/24 09:23:41;;;;;;;0.20;0.20;;;;;;;;;;10401688;28;20206;-75
2023/12/24 09:28:42;;;;;;;0.10;0.10;;;;;;;;;;10390226;28;20293;-77
2023/12/24 09:33:44;;;;;;;0.10;0.10;;;;;;;;;;10402426;28;20207;-75
2023/12/24 09:38:46;;;;;;;1.13;0.20;;;;;;;;;;10390317;28;20214;-75
2023/12/24 09:43:47;;;;;;;0.03;0.03;;;;;;;;;;10369886;28;20202;-76
2023/12/24 09:48:48;;;;;;;0.10;0.10;;;;;;;;;;10391075;28;20219;-75
2023/12/24 09:53:49;;;;;;;0.10;0.10;;;;;;;;;;10413718;28;20230;-75
2023/12/24 09:58:50;;;;;;;0.10;0.10;;;;;;;;;;10422683;28;20229;-75
2023/12/24 10:03:51;;;;;;;0.10;0.10;;;;;;;;;;10395697;28;20280;-76
2023/12/24 10:08:55;;;;;;;0.10;0.10;;;;;;;;;;10391256;28;20242;-73
2023/12/24 10:13:58;;;;;;;0.10;0.10;;;;;;;;;;10395430;28;20218;-76
2023/12/24 10:18:59;;;;;;;0.15;0.15;;;;;;;;;;10433521;28;20251;-75
2023/12/24 10:24:06;;;;;;;1.88;0.00;;;;;;;;;;10421759;28;20298;-76
2023/12/24 10:29:07;;;;;;;0.20;0.20;;;;;;;;;;10401921;28;20295;-74
2023/12/24 10:34:08;;;;;;;0.10;0.10;;;;;;;;;;10422010;28;20274;-77
2023/12/24 10:39:18;;;;;;;0.10;0.10;;;;;;;;;;10389176;28;20210;-76
2023/12/24 10:44:19;;;;;;;0.10;0.10;;;;;;;;;;10404033;28;20207;-75
2023/12/24 10:49:21;;;;;;;0.95;0.10;;;;;;;;;;10406949;28;20215;-79
2023/12/24 10:54:22;;;;;;;0.00;0.00;;;;;;;;;;10419095;28;20206;-77
2023/12/24 10:59:31;;;;;;;0.10;0.10;;;;;;;;;;10387814;28;20227;-77
2023/12/24 11:04:45;;;;;;;0.10;0.10;;;;;;;;;;10403888;28;20677;-76
2023/12/24 11:09:47;;;;;;;0.10;0.10;;;;;;;;;;10382753;28;20214;-76
2023/12/24 11:14:48;;;;;;;0.10;0.10;;;;;;;;;;10419754;28;20206;-74
2023/12/24 11:19:49;;;;;;;0.13;0.13;;;;;;;;;;10396070;28;20767;-76
2023/12/24 11:25:10;;;;;;;0.15;0.15;;;;;;;;;;10405277;28;20210;-78
2023/12/24 11:30:11;;;;;;;0.10;0.10;;;;;;;;;;10420438;28;20265;-77
2023/12/24 11:35:32;;;;;;;0.10;0.10;;;;;;;;;;10410712;28;20252;-76
2023/12/24 11:40:33;;;;;;;0.10;0.10;;;;;;;;;;10422326;28;20218;-77
2023/12/24 11:45:34;;;;;;;0.10;0.10;;;;;;;;;;10404566;28;20217;-77
2023/12/24 11:50:35;;;;;;;0.10;0.10;;;;;;;;;;10383785;28;20215;-75
2023/12/24 11:55:36;;;;;;;0.10;0.10;;;;;;;;;;10416340;28;20712;-75
2023/12/24 12:00:38;;;;;;;0.10;0.10;;;;;;;;;;10407359;28;20202;-74
2023/12/24 12:05:39;;;;;;;0.10;0.10;;;;;;;;;;10405357;28;20251;-75
2023/12/24 12:10:41;;;;;;;0.10;0.10;;;;;;;;;;10406984;28;20220;-76
2023/12/24 12:15:42;;;;;;;0.10;0.10;;;;;;;;;;10376044;28;20284;-74
2023/12/24 12:20:46;;;;;;;0.10;0.10;;;;;;;;;;10415456;28;20332;-74
2023/12/24 12:25:47;;;;;;;0.10;0.10;;;;;;;;;;10392285;28;20836;-76
2023/12/24 12:30:48;;;;;;;0.10;0.10;;;;;;;;;;10402220;28;20214;-74
2023/12/24 12:35:49;;;;;;;0.10;0.10;;;;;;;;;;10362151;28;20214;-76
2023/12/24 12:40:53;;;;;;;0.10;0.10;;;;;;;;;;10345748;28;20314;-77
2023/12/24 12:45:54;;;;;;;0.00;0.00;;;;;;;;;;10394729;28;20329;-75
2023/12/24 12:50:55;;;;;;;0.10;0.10;;;;;;;;;;10381637;28;20273;-74
2023/12/24 12:56:03;;;;;;;0.20;0.20;;;;;;;;;;10362912;28;20610;-78
2023/12/24 13:01:04;;;;;;;0.10;0.10;;;;;;;;;;10400706;28;20218;-75
2023/12/24 13:06:12;;;;;;;0.20;0.20;;;;;;;;;;10381507;28;20219;-76
2023/12/24 13:11:13;;;;;;;0.30;0.30;;;;;;;;;;10355671;28;21488;-77
2023/12/24 13:16:14;;;;;;;0.10;0.10;;;;;;;;;;10389339;28;20592;-76
2023/12/24 13:21:15;;;;;;;0.10;0.10;;;;;;;;;;10391953;28;20210;-75
2023/12/24 13:26:16;;;;;;;0.20;0.20;;;;;;;;;;10381705;28;20225;-76
2023/12/24 13:31:23;;;;;;;0.20;0.20;;;;;;;;;;10405279;28;20230;-77
2023/12/24 13:36:24;;;;;;;0.38;0.38;;;;;;;;;;10391704;28;20256;-75
2023/12/24 13:41:25;;;;;;;0.38;0.38;;;;;;;;;;10370771;28;20302;-75
2023/12/24 13:46:26;;;;;;;0.10;0.10;;;;;;;;;;10396701;28;20233;-79
2023/12/24 13:51:27;;;;;;;0.28;0.28;;;;;;;;;;10358865;28;20236;-76
2023/12/24 13:56:29;;;;;;;0.20;0.20;;;;;;;;;;10380732;28;20227;-76
2023/12/24 14:01:30;;;;;;;0.20;0.20;;;;;;;;;;10385560;28;20301;-77
2023/12/24 14:06:31;;;;;;;0.17;0.17;;;;;;;;;;10380511;28;20217;-76
2023/12/24 14:11:32;;;;;;;0.20;0.20;;;;;;;;;;10351793;28;20234;-78
2023/12/24 14:16:33;;;;;;;0.10;0.10;;;;;;;;;;10378049;28;20693;-77
2023/12/24 14:21:34;;;;;;;0.20;0.20;;;;;;;;;;10352807;28;20215;-77
2023/12/24 14:26:37;;;;;;;0.10;0.10;;;;;;;;;;10398319;28;20219;-78
2023/12/24 14:31:38;;;;;;;0.10;0.10;;;;;;;;;;10419125;28;20310;-78
2023/12/24 14:36:39;;;;;;;0.17;0.10;;;;;;;;;;10378445;28;20221;-75
2023/12/24 14:41:40;;;;;;;0.90;0.90;;;;;;;;;;10372936;28;20357;-77
2023/12/24 14:46:41;;;;;;;0.20;0.20;;;;;;;;;;10402932;28;20585;-77
2023/12/24 14:51:42;;;;;;;0.20;0.20;;;;;;;;;;10384592;28;20218;-78
2023/12/24 14:56:43;;;;;;;0.20;0.20;;;;;;;;;;10383784;28;20938;-76
2023/12/24 15:01:45;;;;;;;0.25;0.25;;;;;;;;;;10394599;28;20218;-75
2023/12/24 15:06:46;;;;;;;0.10;0.10;;;;;;;;;;10345341;28;20227;-76
2023/12/24 15:11:47;;;;;;;0.10;0.10;;;;;;;;;;10364395;28;20210;-75
2023/12/24 15:16:48;;;;;;;0.10;0.10;;;;;;;;;;10372963;28;20223;-76
2023/12/24 15:21:49;;;;;;;0.10;0.10;;;;;;;;;;10362649;28;20229;-75
2023/12/24 15:26:50;;;;;;;0.10;0.10;;;;;;;;;;10357068;28;20238;-78
2023/12/24 15:31:52;;;;;;;0.10;0.10;;;;;;;;;;10378092;28;20221;-76
2023/12/24 15:36:53;;;;;;;0.10;0.10;;;;;;;;;;10385086;28;22380;-76
2023/12/24 15:41:55;;;;;;;0.10;0.10;;;;;;;;;;10383470;28;20222;-79
2023/12/24 15:46:56;;;;;;;0.25;0.10;;;;;;;;;;10383926;28;20233;-76
2023/12/24 15:51:57;;;;;;;0.10;0.10;;;;;;;;;;10368424;28;20261;-76
2023/12/24 15:56:58;;;;;;;0.10;0.10;;;;;;;;;;10371044;28;20226;-80
2023/12/24 16:01:59;;;;;;;0.20;0.20;;;;;;;;;;10379587;28;20257;-78
2023/12/24 16:07:00;;;;;;;0.20;0.20;;;;;;;;;;10384159;28;21087;-77
2023/12/24 16:12:07;;;;;;;0.20;0.20;;;;;;;;;;10367880;28;20218;-78
2023/12/24 16:17:08;;;;;;;0.20;0.20;;;;;;;;;;10367264;28;20230;-79
2023/12/24 16:22:09;;;;;;;0.50;0.50;;;;;;;;;;10415315;28;20653;-80
2023/12/24 16:27:10;;;;;;;0.20;0.20;;;;;;;;;;10376140;28;20246;-77
2023/12/24 16:32:14;;;;;;;0.15;0.10;;;;;;;;;;10387607;28;21543;-75
2023/12/24 16:37:15;;;;;;;0.10;0.10;;;;;;;;;;10392086;28;20222;-78
2023/12/24 16:42:16;;;;;;;0.10;0.10;;;;;;;;;;10376377;28;20690;-76
2023/12/24 16:47:17;;;;;;;0.20;0.20;;;;;;;;;;10395384;28;20651;-76
2023/12/24 16:52:18;;;;;;;0.10;0.10;;;;;;;;;;10406531;28;20219;-77
2023/12/24 16:57:19;;;;;;;0.10;0.10;;;;;;;;;;10387962;28;20219;-75
2023/12/24 17:02:20;;;;;;;0.10;0.10;;;;;;;;;;10385289;28;20246;-75
2023/12/24 17:07:21;;;;;;;0.08;0.08;;;;;;;;;;10378005;28;20230;-76
2023/12/24 17:12:22;;;;;;;0.20;0.20;;;;;;;;;;10354796;28;20223;-75
2023/12/24 17:17:23;;;;;;;0.10;0.10;;;;;;;;;;10371931;28;20592;-78
2023/12/24 17:22:24;;;;;;;0.10;0.10;;;;;;;;;;10396580;28;21025;-78
2023/12/24 17:27:25;;;;;;;0.10;0.10;;;;;;;;;;10351011;28;21048;-76
2023/12/24 17:32:26;;;;;;;0.00;0.00;;;;;;;;;;10371387;28;20214;-79
2023/12/24 17:37:27;;;;;;;0.10;0.10;;;;;;;;;;10368128;28;20255;-78
2023/12/24 17:42:29;;;;;;;0.55;0.10;;;;;;;;;;10365626;28;20218;-79
2023/12/24 17:47:30;;;;;;;0.10;0.10;;;;;;;;;;10347455;28;20217;-79
2023/12/24 17:52:31;;;;;;;0.20;0.10;;;;;;;;;;10401119;28;20211;-77
2023/12/24 17:57:32;;;;;;;0.32;0.10;;;;;;;;;;10392684;28;20226;-76
2023/12/24 18:02:35;;;;;;;0.30;0.30;;;;;;;;;;10366271;28;20720;-77
2023/12/24 18:07:37;;;;;;;0.10;0.10;;;;;;;;;;10400374;28;20234;-77
2023/12/24 18:12:38;;;;;;;0.10;0.10;;;;;;;;;;10393199;28;20210;-79
2023/12/24 18:17:39;;;;;;;0.10;0.10;;;;;;;;;;10351444;28;20281;-76
2023/12/24 18:22:41;;;;;;;0.10;0.10;;;;;;;;;;10385243;28;20697;-78
2023/12/24 18:27:42;;;;;;;0.10;0.10;;;;;;;;;;10368770;28;21579;-76
2023/12/24 18:32:43;;;;;;;0.20;0.20;;;;;;;;;;10381214;28;20225;-76
2023/12/24 18:37:44;;;;;;;0.63;0.20;;;;;;;;;;10390668;28;20835;-78
2023/12/24 18:42:45;;;;;;;0.30;0.30;;;;;;;;;;10351599;28;20215;-77
2023/12/24 18:47:48;;;;;;;3.17;1.50;;;;;;;;;;10388596;28;20219;-77
2023/12/24 18:52:49;;;;;;;0.50;0.50;;;;;;;;;;10392960;28;20960;-75
2023/12/24 18:57:51;;;;;;;1.95;0.82;;;;;;;;;;10379945;28;20230;-76
2023/12/24 19:02:52;;;;;;;0.77;0.40;;;;;;;;;;10356612;28;20222;-77
2023/12/24 19:07:53;;;;;;;1.85;1.25;;;;;;;;;;10375714;28;23090;-75
2023/12/24 19:12:56;;;;;;;0.38;0.38;;;;;;;;;;10391171;28;20313;-76
2023/12/24 19:17:57;;;;;;;1.00;0.45;;;;;;;;;;10363338;28;20242;-75
2023/12/24 19:22:58;;;;;;;7.20;2.28;;;;;;;;;;10371088;28;20215;-79
2023/12/24 19:27:59;;;;;;;0.70;0.70;;;;;;;;;;10405272;28;20210;-77
2023/12/24 19:33:00;;;;;;;0.45;0.45;;;;;;;;;;10383225;28;20842;-77
2023/12/24 19:38:02;;;;;;;0.30;0.30;;;;;;;;;;10377396;28;20218;-78
2023/12/24 19:43:03;;;;;;;0.10;0.10;;;;;;;;;;10410370;28;20223;-78
2023/12/24 19:48:06;;;;;;;0.20;0.20;;;;;;;;;;10360823;28;20242;-78
2023/12/24 19:53:07;;;;;;;0.20;0.20;;;;;;;;;;10363195;28;20223;-77
2023/12/24 19:58:08;;;;;;;0.10;0.10;;;;;;;;;;10373977;28;20281;-77
2023/12/24 20:03:09;;;;;;;0.10;0.10;;;;;;;;;;10353121;28;20630;-76
2023/12/24 20:08:10;;;;;;;0.10;0.10;;;;;;;;;;10386658;28;20343;-76
2023/12/24 20:13:14;;;;;;;0.15;0.15;;;;;;;;;;10372134;28;20305;-75
2023/12/24 20:18:15;;;;;;;0.13;0.13;;;;;;;;;;10367470;28;20215;-78
2023/12/24 20:23:16;;;;;;;0.10;0.10;;;;;;;;;;10375558;28;20243;-79
2023/12/24 20:28:17;;;;;;;0.10;0.10;;;;;;;;;;10383936;28;20229;-76
2023/12/24 20:33:18;;;;;;;0.10;0.10;;;;;;;;;;10342026;28;20222;-77
2023/12/24 20:38:19;;;;;;;0.10;0.10;;;;;;;;;;10377347;28;20865;-75
2023/12/24 20:43:21;;;;;;;1.25;0.10;;;;;;;;;;10389318;28;20206;-75
2023/12/24 20:48:22;;;;;;;0.10;0.10;;;;;;;;;;10389019;28;20249;-75
2023/12/24 20:53:23;;;;;;;0.17;0.17;;;;;;;;;;10375416;28;20665;-75
2023/12/24 20:58:24;;;;;;;0.10;0.10;;;;;;;;;;10380002;28;21075;-74
2023/12/24 21:03:25;;;;;;;0.10;0.10;;;;;;;;;;10388028;28;20221;-75
2023/12/24 21:08:26;;;;;;;0.10;0.10;;;;;;;;;;10355721;28;20226;-76
2023/12/24 21:13:27;;;;;;;0.10;0.10;;;;;;;;;;10391656;28;20234;-76
2023/12/24 21:18:28;;;;;;;0.10;0.10;;;;;;;;;;10387427;28;20222;-74
2023/12/24 21:23:29;;;;;;;0.10;0.10;;;;;;;;;;10388799;28;20280;-75
2023/12/24 21:28:30;;;;;;;0.10;0.10;;;;;;;;;;10382937;28;20221;-76
2023/12/24 21:33:31;;;;;;;0.20;0.20;;;;;;;;;;10381531;28;20311;-76
2023/12/24 21:38:32;;;;;;;0.10;0.10;;;;;;;;;;10363108;28;20230;-76
2023/12/24 21:43:33;;;;;;;0.10;0.10;;;;;;;;;;10403803;28;20280;-75
2023/12/24 21:48:34;;;;;;;0.22;0.20;;;;;;;;;;10402796;28;20888;-77
2023/12/24 21:53:35;;;;;;;0.20;0.20;;;;;;;;;;10376165;28;20599;-75
2023/12/24 21:58:36;;;;;;;0.20;0.20;;;;;;;;;;10384823;28;21294;-76
2023/12/24 22:03:39;;;;;;;0.10;0.10;;;;;;;;;;10401584;28;20229;-76
2023/12/24 22:08:40;;;;;;;0.10;0.10;;;;;;;;;;10388803;28;20231;-76
2023/12/24 22:13:41;;;;;;;0.20;0.20;;;;;;;;;;10392168;28;20761;-76
2023/12/24 22:18:42;;;;;;;0.20;0.20;;;;;;;;;;10395626;28;20221;-76
2023/12/24 22:23:44;;;;;;;0.20;0.20;;;;;;;;;;10381327;28;20253;-75
2023/12/24 22:28:46;;;;;;;0.90;0.28;;;;;;;;;;10410074;28;20211;-78
2023/12/24 22:33:47;;;;;;;0.40;0.40;;;;;;;;;;10399757;28;20294;-78
2023/12/24 22:38:49;;;;;;;0.43;0.28;;;;;;;;;;10380455;28;20226;-74
2023/12/24 22:43:50;;;;;;;0.90;0.30;;;;;;;;;;10416171;28;20882;-77
2023/12/24 22:48:51;;;;;;;0.40;0.40;;;;;;;;;;10362420;28;21043;-76
2023/12/24 22:53:52;;;;;;;1.25;0.30;;;;;;;;;;10375122;28;20284;-77
2023/12/24 22:59:01;;;;;;;1.08;0.20;;;;;;;;;;10386602;28;20230;-76
2023/12/24 23:04:02;;;;;;;0.82;0.38;;;;;;;;;;10394493;28;20222;-76
2023/12/24 23:09:03;;;;;;;0.32;0.32;;;;;;;;;;10380458;28;20302;-75
2023/12/24 23:14:04;;;;;;;1.30;0.30;;;;;;;;;;10385910;28;20234;-78
2023/12/24 23:19:05;;;;;;;0.52;0.47;;;;;;;;;;10387770;28;20214;-77
2023/12/24 23:24:08;;;;;;;0.75;0.20;;;;;;;;;;10345093;28;20608;-75
2023/12/24 23:29:09;;;;;;;0.22;0.22;;;;;;;;;;10377722;28;20577;-76
2023/12/24 23:34:10;;;;;;;2.72;0.40;;;;;;;;;;10393006;28;20221;-77
2023/12/24 23:39:13;;;;;;;1.20;0.30;;;;;;;;;;10386238;28;20581;-76
2023/12/24 23:44:14;;;;;;;1.48;0.38;;;;;;;;;;10383394;28;20337;-77
2023/12/24 23:49:15;;;;;;;1.08;0.50;;;;;;;;;;10411228;28;20210;-74
2023/12/24 23:54:16;;;;;;;0.75;0.30;;;;;;;;;;10379982;28;20225;-77
2023/12/24 23:59:21;;;;;;;0.32;0.32;;;;;;;;;;10402004;28;20238;-77
